N324BA KVNY-KCRQ
Flight info
| Callsign | N324BA |
|---|---|
| Flight time | 0h 27m |
| Altitude | 9000 |
| Route | TWINE V518 KIMMO V459 SLI V23 OCN |
| Aircraft | P180/L-SBDFGM3RWXY/LB1 |
Departure
| Time | 2026-05-08 02:55 |
|---|---|
| Airport | Van Nuys Airport (KVNY) |
Arrival
| Time | 2026-05-08 03:22 |
|---|---|
| Airport | McClellan-Palomar Airport (KCRQ) |
| Time | Latitude | Longitude | Altitude | Speed | Heading |
|---|---|---|---|---|---|
| 2026-05-08 02:37 | 34.20834 | -118.48703 | 779 ft | 0 kts | 159° |
| 2026-05-08 02:47 | 34.20825 | -118.48712 | 778 ft | 3 kts | 263° |
| 2026-05-08 02:47 | 34.20832 | -118.48746 | 779 ft | 6 kts | 256° |
| 2026-05-08 02:48 | 34.20826 | -118.48810 | 779 ft | 8 kts | 295° |
| 2026-05-08 02:48 | 34.20884 | -118.48826 | 781 ft | 10 kts | 356° |
| 2026-05-08 02:48 | 34.20963 | -118.48834 | 783 ft | 13 kts | 354° |
| 2026-05-08 02:48 | 34.21060 | -118.48842 | 785 ft | 15 kts | 355° |
| 2026-05-08 02:49 | 34.21171 | -118.48853 | 786 ft | 17 kts | 355° |
| 2026-05-08 02:49 | 34.21297 | -118.48865 | 787 ft | 19 kts | 356° |
| 2026-05-08 02:49 | 34.21429 | -118.48878 | 791 ft | 19 kts | 354° |
| 2026-05-08 02:49 | 34.21549 | -118.48892 | 793 ft | 13 kts | 346° |
| 2026-05-08 02:50 | 34.21646 | -118.48917 | 794 ft | 15 kts | 348° |
| 2026-05-08 02:50 | 34.21753 | -118.48938 | 798 ft | 15 kts | 355° |
| 2026-05-08 02:50 | 34.21850 | -118.48947 | 803 ft | 11 kts | 355° |
| 2026-05-08 02:50 | 34.21872 | -118.48951 | 804 ft | 0 kts | 342° |
| 2026-05-08 02:53 | 34.21890 | -118.48969 | 805 ft | 7 kts | 298° |
| 2026-05-08 02:53 | 34.21889 | -118.49055 | 805 ft | 12 kts | 268° |
| 2026-05-08 02:54 | 34.21866 | -118.49123 | 803 ft | 8 kts | 169° |
| 2026-05-08 02:54 | 34.21862 | -118.49122 | 803 ft | 0 kts | 168° |
| 2026-05-08 02:54 | 34.21814 | -118.49116 | 801 ft | 39 kts | 178° |
| 2026-05-08 02:54 | 34.21215 | -118.49059 | 793 ft | 126 kts | 174° |
| 2026-05-08 02:55 | 34.20261 | -118.48994 | 1254 ft | 145 kts | 176° |
| 2026-05-08 02:55 | 34.18103 | -118.48839 | 2111 ft | 168 kts | 175° |
| 2026-05-08 02:55 | 34.16914 | -118.48672 | 2497 ft | 175 kts | 173° |
| 2026-05-08 02:56 | 34.15696 | -118.48467 | 2914 ft | 179 kts | 173° |
| 2026-05-08 02:56 | 34.14385 | -118.48209 | 3431 ft | 197 kts | 173° |
| 2026-05-08 02:56 | 34.13047 | -118.47932 | 4241 ft | 193 kts | 169° |
| 2026-05-08 02:56 | 34.11680 | -118.47589 | 4736 ft | 209 kts | 170° |
| 2026-05-08 02:57 | 34.10260 | -118.47195 | 5290 ft | 213 kts | 167° |
| 2026-05-08 02:57 | 34.08901 | -118.46346 | 5573 ft | 229 kts | 142° |
| 2026-05-08 02:57 | 34.07896 | -118.44823 | 5852 ft | 236 kts | 121° |
| 2026-05-08 02:57 | 34.07056 | -118.43106 | 6180 ft | 238 kts | 122° |
| 2026-05-08 02:58 | 34.06069 | -118.41520 | 6607 ft | 236 kts | 132° |
| 2026-05-08 02:58 | 34.04943 | -118.40093 | 6993 ft | 236 kts | 135° |
| 2026-05-08 02:58 | 34.03778 | -118.38676 | 7339 ft | 238 kts | 135° |
| 2026-05-08 02:58 | 34.03019 | -118.37734 | 7626 ft | 236 kts | 134° |
| 2026-05-08 02:59 | 34.01904 | -118.36262 | 7939 ft | 240 kts | 131° |
| 2026-05-08 02:59 | 34.00794 | -118.34763 | 8301 ft | 240 kts | 132° |
| 2026-05-08 02:59 | 33.99658 | -118.33281 | 8663 ft | 240 kts | 133° |
| 2026-05-08 02:59 | 33.98500 | -118.31818 | 8990 ft | 242 kts | 134° |
| 2026-05-08 03:00 | 33.97312 | -118.30339 | 9060 ft | 247 kts | 135° |
| 2026-05-08 03:00 | 33.96089 | -118.28856 | 9044 ft | 252 kts | 133° |
| 2026-05-08 03:00 | 33.94956 | -118.27226 | 9035 ft | 255 kts | 128° |
| 2026-05-08 03:00 | 33.93832 | -118.25558 | 9037 ft | 258 kts | 131° |
| 2026-05-08 03:01 | 33.92592 | -118.23983 | 9032 ft | 261 kts | 135° |
| 2026-05-08 03:01 | 33.91317 | -118.22416 | 9031 ft | 263 kts | 133° |
| 2026-05-08 03:01 | 33.90075 | -118.20786 | 9019 ft | 265 kts | 131° |
| 2026-05-08 03:01 | 33.88839 | -118.19133 | 9018 ft | 266 kts | 132° |
| 2026-05-08 03:02 | 33.87580 | -118.17499 | 9017 ft | 267 kts | 133° |
| 2026-05-08 03:02 | 33.86310 | -118.15866 | 9013 ft | 267 kts | 133° |
| 2026-05-08 03:02 | 33.85048 | -118.14223 | 9009 ft | 267 kts | 132° |
| 2026-05-08 03:02 | 33.83788 | -118.12578 | 9013 ft | 268 kts | 133° |
| 2026-05-08 03:03 | 33.82523 | -118.10937 | 9015 ft | 268 kts | 133° |
| 2026-05-08 03:03 | 33.81257 | -118.09296 | 9014 ft | 268 kts | 133° |
| 2026-05-08 03:03 | 33.79995 | -118.07651 | 9013 ft | 268 kts | 132° |
| 2026-05-08 03:03 | 33.78739 | -118.05998 | 9014 ft | 268 kts | 132° |
| 2026-05-08 03:04 | 33.77406 | -118.04437 | 9006 ft | 268 kts | 137° |
| 2026-05-08 03:04 | 33.76073 | -118.02879 | 9008 ft | 267 kts | 134° |
| 2026-05-08 03:04 | 33.74780 | -118.01274 | 9011 ft | 268 kts | 134° |
| 2026-05-08 03:04 | 33.73461 | -117.99692 | 9028 ft | 268 kts | 135° |
| 2026-05-08 03:05 | 33.72122 | -117.98138 | 9030 ft | 268 kts | 135° |
| 2026-05-08 03:05 | 33.70807 | -117.96594 | 9037 ft | 268 kts | 135° |
| 2026-05-08 03:05 | 33.69486 | -117.95018 | 9036 ft | 268 kts | 135° |
| 2026-05-08 03:05 | 33.68160 | -117.93448 | 9041 ft | 268 kts | 135° |
| 2026-05-08 03:06 | 33.66829 | -117.91884 | 9038 ft | 268 kts | 135° |
| 2026-05-08 03:06 | 33.65500 | -117.90318 | 9038 ft | 267 kts | 135° |
| 2026-05-08 03:06 | 33.64177 | -117.88754 | 9036 ft | 267 kts | 135° |
| 2026-05-08 03:06 | 33.62850 | -117.87189 | 9039 ft | 267 kts | 135° |
| 2026-05-08 03:07 | 33.61524 | -117.85627 | 9023 ft | 268 kts | 135° |
| 2026-05-08 03:07 | 33.60192 | -117.84058 | 9009 ft | 268 kts | 135° |
| 2026-05-08 03:07 | 33.58864 | -117.82492 | 9008 ft | 267 kts | 135° |
| 2026-05-08 03:07 | 33.57535 | -117.80931 | 9008 ft | 267 kts | 135° |
| 2026-05-08 03:08 | 33.56209 | -117.79373 | 9006 ft | 267 kts | 134° |
| 2026-05-08 03:08 | 33.54886 | -117.77814 | 9004 ft | 267 kts | 134° |
| 2026-05-08 03:08 | 33.53564 | -117.76260 | 9004 ft | 266 kts | 134° |
| 2026-05-08 03:08 | 33.52237 | -117.74705 | 9002 ft | 266 kts | 134° |
| 2026-05-08 03:09 | 33.50915 | -117.73147 | 9000 ft | 267 kts | 134° |
| 2026-05-08 03:09 | 33.49592 | -117.71593 | 9004 ft | 267 kts | 134° |
| 2026-05-08 03:09 | 33.48265 | -117.70037 | 9001 ft | 267 kts | 134° |
| 2026-05-08 03:09 | 33.46940 | -117.68484 | 8999 ft | 267 kts | 134° |
| 2026-05-08 03:10 | 33.45617 | -117.66932 | 8999 ft | 266 kts | 134° |
| 2026-05-08 03:10 | 33.44292 | -117.65381 | 9000 ft | 266 kts | 134° |
| 2026-05-08 03:10 | 33.42966 | -117.63831 | 9001 ft | 266 kts | 134° |
| 2026-05-08 03:10 | 33.41641 | -117.62282 | 9003 ft | 266 kts | 134° |
| 2026-05-08 03:11 | 33.40317 | -117.60732 | 9007 ft | 266 kts | 134° |
| 2026-05-08 03:11 | 33.38993 | -117.59184 | 9003 ft | 266 kts | 134° |
| 2026-05-08 03:11 | 33.37669 | -117.57637 | 9007 ft | 266 kts | 134° |
| 2026-05-08 03:11 | 33.36345 | -117.56092 | 9007 ft | 266 kts | 134° |
| 2026-05-08 03:12 | 33.35022 | -117.54546 | 9007 ft | 266 kts | 134° |
| 2026-05-08 03:12 | 33.33698 | -117.53002 | 9006 ft | 266 kts | 134° |
| 2026-05-08 03:12 | 33.32373 | -117.51458 | 9007 ft | 266 kts | 134° |
| 2026-05-08 03:12 | 33.31052 | -117.49916 | 9009 ft | 266 kts | 134° |
| 2026-05-08 03:13 | 33.29728 | -117.48374 | 9006 ft | 266 kts | 134° |
| 2026-05-08 03:13 | 33.28403 | -117.46831 | 9010 ft | 266 kts | 134° |
| 2026-05-08 03:13 | 33.27080 | -117.45288 | 9008 ft | 266 kts | 134° |
| 2026-05-08 03:13 | 33.25753 | -117.43744 | 9008 ft | 266 kts | 134° |
| 2026-05-08 03:14 | 33.24475 | -117.42153 | 9006 ft | 264 kts | 125° |
| 2026-05-08 03:14 | 33.23827 | -117.40144 | 8993 ft | 259 kts | 95° |
| 2026-05-08 03:14 | 33.23639 | -117.38010 | 8997 ft | 259 kts | 94° |
| 2026-05-08 03:14 | 33.23395 | -117.35868 | 8914 ft | 263 kts | 96° |
| 2026-05-08 03:15 | 33.23099 | -117.33672 | 8619 ft | 272 kts | 96° |
| 2026-05-08 03:15 | 33.22831 | -117.31433 | 8274 ft | 270 kts | 95° |
| 2026-05-08 03:15 | 33.22591 | -117.29228 | 7923 ft | 266 kts | 95° |
| 2026-05-08 03:15 | 33.22339 | -117.27054 | 7575 ft | 261 kts | 96° |
| 2026-05-08 03:16 | 33.22089 | -117.24974 | 7244 ft | 247 kts | 96° |
| 2026-05-08 03:16 | 33.21857 | -117.22970 | 6923 ft | 241 kts | 95° |
| 2026-05-08 03:16 | 33.21623 | -117.20998 | 6608 ft | 238 kts | 96° |
| 2026-05-08 03:16 | 33.21384 | -117.19048 | 6291 ft | 237 kts | 96° |
| 2026-05-08 03:17 | 33.21150 | -117.17122 | 5972 ft | 237 kts | 96° |
| 2026-05-08 03:17 | 33.20919 | -117.15153 | 5652 ft | 236 kts | 96° |
| 2026-05-08 03:17 | 33.20694 | -117.13243 | 5349 ft | 235 kts | 96° |
| 2026-05-08 03:17 | 33.20463 | -117.11325 | 5041 ft | 230 kts | 95° |
| 2026-05-08 03:18 | 33.20105 | -117.09471 | 4726 ft | 229 kts | 115° |
| 2026-05-08 03:18 | 33.19001 | -117.08217 | 4416 ft | 219 kts | 159° |
| 2026-05-08 03:18 | 33.17516 | -117.08034 | 4066 ft | 214 kts | 194° |
| 2026-05-08 03:18 | 33.16253 | -117.08879 | 3742 ft | 207 kts | 229° |
| 2026-05-08 03:19 | 33.15629 | -117.10349 | 3419 ft | 197 kts | 258° |
| 2026-05-08 03:19 | 33.15388 | -117.11976 | 3103 ft | 203 kts | 262° |
| 2026-05-08 03:19 | 33.15151 | -117.13666 | 2766 ft | 210 kts | 261° |
| 2026-05-08 03:19 | 33.14864 | -117.15386 | 2460 ft | 208 kts | 258° |
| 2026-05-08 03:20 | 33.14596 | -117.16984 | 2178 ft | 186 kts | 259° |
| 2026-05-08 03:20 | 33.14365 | -117.18428 | 1927 ft | 171 kts | 259° |
| 2026-05-08 03:20 | 33.14160 | -117.19703 | 1708 ft | 143 kts | 259° |
| 2026-05-08 03:20 | 33.13987 | -117.20796 | 1509 ft | 129 kts | 259° |
| 2026-05-08 03:21 | 33.13832 | -117.21835 | 1327 ft | 125 kts | 260° |
| 2026-05-08 03:21 | 33.13669 | -117.22870 | 1173 ft | 130 kts | 258° |
| 2026-05-08 03:21 | 33.13483 | -117.23935 | 985 ft | 127 kts | 258° |
| 2026-05-08 03:21 | 33.13320 | -117.24954 | 793 ft | 125 kts | 260° |
| 2026-05-08 03:22 | 33.13160 | -117.25972 | 586 ft | 123 kts | 258° |
| 2026-05-08 03:22 | 33.12997 | -117.26957 | 400 ft | 120 kts | 258° |
| 2026-05-08 03:22 | 33.12851 | -117.27872 | 330 ft | 102 kts | 259° |
| 2026-05-08 03:22 | 33.12790 | -117.28239 | 333 ft | 12 kts | 266° |
| 2026-05-08 03:23 | 33.12840 | -117.28279 | 332 ft | 13 kts | 351° |
| 2026-05-08 03:23 | 33.12862 | -117.28317 | 330 ft | 3 kts | 255° |
| 2026-05-08 03:23 | 33.12868 | -117.28326 | 333 ft | 2 kts | 356° |
| 2026-05-08 03:23 | 33.12867 | -117.28301 | 331 ft | 8 kts | 112° |
| 2026-05-08 03:24 | 33.12799 | -117.28269 | 330 ft | 13 kts | 168° |
| 2026-05-08 03:24 | 33.12732 | -117.28261 | 334 ft | 3 kts | 185° |
| 2026-05-08 03:24 | 33.12716 | -117.28179 | 334 ft | 17 kts | 81° |
| 2026-05-08 03:24 | 33.12668 | -117.28085 | 331 ft | 13 kts | 160° |
| 2026-05-08 03:25 | 33.12659 | -117.28081 | 332 ft | 0 kts | 160° |